sensor_id;sensor_type;location;lat;lon;timestamp;temperature;humidity
20463;DHT22;10390;53.566;9.980;2023-03-01T00:01:22;24.80;1.00
20463;DHT22;10390;53.566;9.980;2023-03-01T00:03:48;24.80;1.00
20463;DHT22;10390;53.566;9.980;2023-03-01T00:06:14;24.80;1.00
20463;DHT22;10390;53.566;9.980;2023-03-01T00:08:39;24.80;1.00
20463;DHT22;10390;53.566;9.980;2023-03-01T00:11:12;24.80;1.00
20463;DHT22;10390;53.566;9.980;2023-03-01T00:13:39;24.90;1.00
20463;DHT22;10390;53.566;9.980;2023-03-01T00:16:08;24.90;1.00
20463;DHT22;10390;53.566;9.980;2023-03-01T00:18:34;24.90;1.00
20463;DHT22;10390;53.566;9.980;2023-03-01T00:20:59;24.90;1.00
20463;DHT22;10390;53.566;9.980;2023-03-01T00:23:25;24.80;1.00
20463;DHT22;10390;53.566;9.980;2023-03-01T00:25:51;24.80;1.00
20463;DHT22;10390;53.566;9.980;2023-03-01T00:28:17;24.70;1.00
20463;DHT22;10390;53.566;9.980;2023-03-01T00:30:43;24.70;1.00
20463;DHT22;10390;53.566;9.980;2023-03-01T00:33:09;24.70;1.00
20463;DHT22;10390;53.566;9.980;2023-03-01T00:35:35;24.70;1.00
20463;DHT22;10390;53.566;9.980;2023-03-01T00:38:00;24.60;1.00
20463;DHT22;10390;53.566;9.980;2023-03-01T00:40:31;24.60;1.00
20463;DHT22;10390;53.566;9.980;2023-03-01T00:42:57;24.50;1.00
20463;DHT22;10390;53.566;9.980;2023-03-01T00:45:23;24.50;1.00
20463;DHT22;10390;53.566;9.980;2023-03-01T00:47:49;24.50;1.00
20463;DHT22;10390;53.566;9.980;2023-03-01T00:50:15;24.50;1.00
20463;DHT22;10390;53.566;9.980;2023-03-01T00:52:41;24.50;1.00
20463;DHT22;10390;53.566;9.980;2023-03-01T00:55:07;24.50;1.00
20463;DHT22;10390;53.566;9.980;2023-03-01T00:57:34;24.50;1.00
20463;DHT22;10390;53.566;9.980;2023-03-01T00:59:59;24.50;1.00
20463;DHT22;10390;53.566;9.980;2023-03-01T01:02:26;24.60;1.00
20463;DHT22;10390;53.566;9.980;2023-03-01T01:04:52;24.60;1.00
20463;DHT22;10390;53.566;9.980;2023-03-01T01:07:18;24.60;1.00
20463;DHT22;10390;53.566;9.980;2023-03-01T01:09:45;24.70;1.00
20463;DHT22;10390;53.566;9.980;2023-03-01T01:12:11;24.70;1.00
20463;DHT22;10390;53.566;9.980;2023-03-01T01:14:37;24.70;1.00
20463;DHT22;10390;53.566;9.980;2023-03-01T01:17:03;24.80;1.00
20463;DHT22;10390;53.566;9.980;2023-03-01T01:19:28;24.80;1.00
20463;DHT22;10390;53.566;9.980;2023-03-01T01:21:54;24.90;1.00
20463;DHT22;10390;53.566;9.980;2023-03-01T01:24:19;24.80;1.00
20463;DHT22;10390;53.566;9.980;2023-03-01T01:26:45;24.90;1.00
20463;DHT22;10390;53.566;9.980;2023-03-01T01:29:11;24.80;1.00
20463;DHT22;10390;53.566;9.980;2023-03-01T01:31:38;24.80;1.00
20463;DHT22;10390;53.566;9.980;2023-03-01T01:34:06;24.80;1.00
20463;DHT22;10390;53.566;9.980;2023-03-01T01:36:33;24.70;1.00
20463;DHT22;10390;53.566;9.980;2023-03-01T01:38:58;24.70;1.00
20463;DHT22;10390;53.566;9.980;2023-03-01T01:41:26;24.70;1.00
20463;DHT22;10390;53.566;9.980;2023-03-01T01:44:21;24.60;1.00
20463;DHT22;10390;53.566;9.980;2023-03-01T01:47:14;24.60;1.00
20463;DHT22;10390;53.566;9.980;2023-03-01T01:49:53;24.50;1.00
20463;DHT22;10390;53.566;9.980;2023-03-01T01:52:26;24.50;1.00
20463;DHT22;10390;53.566;9.980;2023-03-01T01:55:07;24.50;1.00
20463;DHT22;10390;53.566;9.980;2023-03-01T01:57:37;24.40;1.00
20463;DHT22;10390;53.566;9.980;2023-03-01T02:00:13;24.40;1.00
20463;DHT22;10390;53.566;9.980;2023-03-01T02:02:40;24.50;1.00
20463;DHT22;10390;53.566;9.980;2023-03-01T02:05:28;24.50;1.00
20463;DHT22;10390;53.566;9.980;2023-03-01T02:07:58;24.50;1.00
20463;DHT22;10390;53.566;9.980;2023-03-01T02:10:24;24.50;1.00
20463;DHT22;10390;53.566;9.980;2023-03-01T02:12:51;24.60;1.00
20463;DHT22;10390;53.566;9.980;2023-03-01T02:15:17;24.60;1.00
20463;DHT22;10390;53.566;9.980;2023-03-01T02:17:43;24.70;1.00
20463;DHT22;10390;53.566;9.980;2023-03-01T02:23:02;24.70;1.00
20463;DHT22;10390;53.566;9.980;2023-03-01T02:25:47;24.70;1.00
20463;DHT22;10390;53.566;9.980;2023-03-01T02:30:43;24.80;1.00
20463;DHT22;10390;53.566;9.980;2023-03-01T02:33:28;24.80;1.00
20463;DHT22;10390;53.566;9.980;2023-03-01T02:35:59;24.70;1.00
20463;DHT22;10390;53.566;9.980;2023-03-01T02:38:26;24.80;1.00
20463;DHT22;10390;53.566;9.980;2023-03-01T02:40:54;24.70;1.00
20463;DHT22;10390;53.566;9.980;2023-03-01T02:43:24;24.70;1.00
20463;DHT22;10390;53.566;9.980;2023-03-01T02:45:56;24.60;1.00
20463;DHT22;10390;53.566;9.980;2023-03-01T02:48:22;24.60;1.00
20463;DHT22;10390;53.566;9.980;2023-03-01T02:51:05;24.60;1.00
20463;DHT22;10390;53.566;9.980;2023-03-01T02:53:54;24.50;1.00
20463;DHT22;10390;53.566;9.980;2023-03-01T02:56:22;24.50;1.00
20463;DHT22;10390;53.566;9.980;2023-03-01T02:58:48;24.40;1.00
20463;DHT22;10390;53.566;9.980;2023-03-01T03:01:20;24.40;1.00
20463;DHT22;10390;53.566;9.980;2023-03-01T03:03:46;24.30;1.00
20463;DHT22;10390;53.566;9.980;2023-03-01T03:06:12;24.30;1.00
20463;DHT22;10390;53.566;9.980;2023-03-01T03:08:38;24.30;1.00
20463;DHT22;10390;53.566;9.980;2023-03-01T03:11:04;24.30;1.00
20463;DHT22;10390;53.566;9.980;2023-03-01T03:13:30;24.30;1.00
20463;DHT22;10390;53.566;9.980;2023-03-01T03:15:56;24.30;1.00
20463;DHT22;10390;53.566;9.980;2023-03-01T03:18:22;24.30;1.00
20463;DHT22;10390;53.566;9.980;2023-03-01T03:20:48;24.30;1.00
20463;DHT22;10390;53.566;9.980;2023-03-01T03:23:18;24.40;1.00
20463;DHT22;10390;53.566;9.980;2023-03-01T03:25:44;24.40;1.00
20463;DHT22;10390;53.566;9.980;2023-03-01T03:28:10;24.40;1.00
20463;DHT22;10390;53.566;9.980;2023-03-01T03:30:37;24.40;1.00
20463;DHT22;10390;53.566;9.980;2023-03-01T03:33:05;24.50;1.00
20463;DHT22;10390;53.566;9.980;2023-03-01T03:35:43;24.50;1.00
20463;DHT22;10390;53.566;9.980;2023-03-01T03:38:11;24.40;1.00
20463;DHT22;10390;53.566;9.980;2023-03-01T03:40:45;24.40;1.00
20463;DHT22;10390;53.566;9.980;2023-03-01T03:43:16;24.40;1.00
20463;DHT22;10390;53.566;9.980;2023-03-01T03:45:47;24.40;1.00
20463;DHT22;10390;53.566;9.980;2023-03-01T03:48:13;24.40;1.00
20463;DHT22;10390;53.566;9.980;2023-03-01T03:50:40;24.40;1.00
20463;DHT22;10390;53.566;9.980;2023-03-01T03:53:10;24.40;1.00
20463;DHT22;10390;53.566;9.980;2023-03-01T03:55:37;24.30;1.00
20463;DHT22;10390;53.566;9.980;2023-03-01T03:58:06;24.30;1.00
20463;DHT22;10390;53.566;9.980;2023-03-01T04:00:43;24.30;1.00
20463;DHT22;10390;53.566;9.980;2023-03-01T04:03:10;24.20;1.00
20463;DHT22;10390;53.566;9.980;2023-03-01T04:05:38;24.20;1.00
20463;DHT22;10390;53.566;9.980;2023-03-01T04:08:04;24.20;1.00
20463;DHT22;10390;53.566;9.980;2023-03-01T04:10:52;24.20;1.00
20463;DHT22;10390;53.566;9.980;2023-03-01T04:13:22;24.20;1.00
20463;DHT22;10390;53.566;9.980;2023-03-01T04:15:52;24.10;1.00
20463;DHT22;10390;53.566;9.980;2023-03-01T04:18:20;24.10;1.00
20463;DHT22;10390;53.566;9.980;2023-03-01T04:20:46;24.10;1.00
20463;DHT22;10390;53.566;9.980;2023-03-01T04:23:17;24.00;1.00
20463;DHT22;10390;53.566;9.980;2023-03-01T04:25:53;24.00;1.00
20463;DHT22;10390;53.566;9.980;2023-03-01T04:28:29;24.00;1.00
20463;DHT22;10390;53.566;9.980;2023-03-01T04:30:56;24.00;1.00
20463;DHT22;10390;53.566;9.980;2023-03-01T04:33:22;24.10;1.00
20463;DHT22;10390;53.566;9.980;2023-03-01T04:35:48;24.10;1.00
20463;DHT22;10390;53.566;9.980;2023-03-01T04:38:15;24.20;1.00
20463;DHT22;10390;53.566;9.980;2023-03-01T04:40:41;24.20;1.00
20463;DHT22;10390;53.566;9.980;2023-03-01T04:43:09;24.20;1.00
20463;DHT22;10390;53.566;9.980;2023-03-01T04:45:35;24.30;1.00
20463;DHT22;10390;53.566;9.980;2023-03-01T04:48:01;24.30;1.00
20463;DHT22;10390;53.566;9.980;2023-03-01T04:50:27;24.30;1.00
20463;DHT22;10390;53.566;9.980;2023-03-01T04:52:53;24.30;1.00
20463;DHT22;10390;53.566;9.980;2023-03-01T04:55:19;24.30;1.00
20463;DHT22;10390;53.566;9.980;2023-03-01T04:57:44;24.30;1.00
20463;DHT22;10390;53.566;9.980;2023-03-01T05:00:14;24.30;1.00
20463;DHT22;10390;53.566;9.980;2023-03-01T05:02:53;24.30;1.00
20463;DHT22;10390;53.566;9.980;2023-03-01T05:05:28;24.30;1.00
20463;DHT22;10390;53.566;9.980;2023-03-01T05:07:55;24.30;1.00
20463;DHT22;10390;53.566;9.980;2023-03-01T05:10:23;24.20;1.00
20463;DHT22;10390;53.566;9.980;2023-03-01T05:12:49;24.30;1.00
20463;DHT22;10390;53.566;9.980;2023-03-01T05:15:14;24.20;1.00
20463;DHT22;10390;53.566;9.980;2023-03-01T05:17:40;24.20;1.00
20463;DHT22;10390;53.566;9.980;2023-03-01T05:20:06;24.20;1.00
20463;DHT22;10390;53.566;9.980;2023-03-01T05:22:35;24.20;1.00
20463;DHT22;10390;53.566;9.980;2023-03-01T05:25:02;24.20;1.00
20463;DHT22;10390;53.566;9.980;2023-03-01T05:27:28;24.10;1.00
20463;DHT22;10390;53.566;9.980;2023-03-01T05:29:55;24.10;1.00
20463;DHT22;10390;53.566;9.980;2023-03-01T05:32:21;24.00;1.00
20463;DHT22;10390;53.566;9.980;2023-03-01T05:34:46;24.10;1.00
20463;DHT22;10390;53.566;9.980;2023-03-01T05:37:12;24.00;1.00
20463;DHT22;10390;53.566;9.980;2023-03-01T05:39:39;24.00;1.00
20463;DHT22;10390;53.566;9.980;2023-03-01T05:42:05;23.90;1.00
20463;DHT22;10390;53.566;9.980;2023-03-01T05:44:31;23.90;1.00
20463;DHT22;10390;53.566;9.980;2023-03-01T05:46:56;23.80;1.00
20463;DHT22;10390;53.566;9.980;2023-03-01T05:49:22;23.80;1.00
20463;DHT22;10390;53.566;9.980;2023-03-01T05:51:52;23.80;1.00
20463;DHT22;10390;53.566;9.980;2023-03-01T05:54:19;23.90;1.00
20463;DHT22;10390;53.566;9.980;2023-03-01T05:56:45;24.00;1.00
20463;DHT22;10390;53.566;9.980;2023-03-01T05:59:11;24.00;1.00
20463;DHT22;10390;53.566;9.980;2023-03-01T06:01:37;24.10;1.00
20463;DHT22;10390;53.566;9.980;2023-03-01T06:04:03;24.20;1.00
20463;DHT22;10390;53.566;9.980;2023-03-01T06:06:32;24.20;1.00
20463;DHT22;10390;53.566;9.980;2023-03-01T06:08:58;24.20;1.00
20463;DHT22;10390;53.566;9.980;2023-03-01T06:11:24;24.30;1.00
20463;DHT22;10390;53.566;9.980;2023-03-01T06:13:49;24.30;1.00
20463;DHT22;10390;53.566;9.980;2023-03-01T06:16:15;24.30;1.00
20463;DHT22;10390;53.566;9.980;2023-03-01T06:18:41;24.30;1.00
20463;DHT22;10390;53.566;9.980;2023-03-01T06:21:07;24.30;1.00
20463;DHT22;10390;53.566;9.980;2023-03-01T06:23:34;24.30;1.00
20463;DHT22;10390;53.566;9.980;2023-03-01T06:26:00;24.30;1.00
20463;DHT22;10390;53.566;9.980;2023-03-01T06:28:26;24.30;1.00
20463;DHT22;10390;53.566;9.980;2023-03-01T06:30:52;24.30;1.00
20463;DHT22;10390;53.566;9.980;2023-03-01T06:33:18;24.30;1.00
20463;DHT22;10390;53.566;9.980;2023-03-01T06:35:46;24.30;1.00
20463;DHT22;10390;53.566;9.980;2023-03-01T06:38:12;24.30;1.00
20463;DHT22;10390;53.566;9.980;2023-03-01T06:40:40;24.20;1.00
20463;DHT22;10390;53.566;9.980;2023-03-01T06:43:06;24.20;1.00
20463;DHT22;10390;53.566;9.980;2023-03-01T06:45:33;24.20;1.00
20463;DHT22;10390;53.566;9.980;2023-03-01T06:48:05;24.20;1.00
20463;DHT22;10390;53.566;9.980;2023-03-01T06:50:32;24.20;1.00
20463;DHT22;10390;53.566;9.980;2023-03-01T06:52:59;24.10;1.00
20463;DHT22;10390;53.566;9.980;2023-03-01T06:55:24;24.10;1.00
20463;DHT22;10390;53.566;9.980;2023-03-01T06:57:55;24.10;1.00
20463;DHT22;10390;53.566;9.980;2023-03-01T07:00:21;24.10;1.00
20463;DHT22;10390;53.566;9.980;2023-03-01T07:02:47;24.00;1.00
20463;DHT22;10390;53.566;9.980;2023-03-01T07:05:13;24.00;1.00
20463;DHT22;10390;53.566;9.980;2023-03-01T07:07:38;24.10;1.00
20463;DHT22;10390;53.566;9.980;2023-03-01T07:10:04;24.10;1.00
20463;DHT22;10390;53.566;9.980;2023-03-01T07:12:30;24.20;1.00
20463;DHT22;10390;53.566;9.980;2023-03-01T07:14:55;24.30;1.00
20463;DHT22;10390;53.566;9.980;2023-03-01T07:17:21;24.30;1.00
20463;DHT22;10390;53.566;9.980;2023-03-01T07:19:47;24.40;1.00
20463;DHT22;10390;53.566;9.980;2023-03-01T07:22:12;24.50;1.00
20463;DHT22;10390;53.566;9.980;2023-03-01T07:24:38;24.60;1.00
20463;DHT22;10390;53.566;9.980;2023-03-01T07:27:03;24.50;1.00
20463;DHT22;10390;53.566;9.980;2023-03-01T07:29:29;24.60;1.00
20463;DHT22;10390;53.566;9.980;2023-03-01T07:31:55;24.60;1.00
20463;DHT22;10390;53.566;9.980;2023-03-01T07:34:21;24.50;1.00
20463;DHT22;10390;53.566;9.980;2023-03-01T07:36:46;24.50;1.00
20463;DHT22;10390;53.566;9.980;2023-03-01T07:39:12;24.50;1.00
20463;DHT22;10390;53.566;9.980;2023-03-01T07:41:38;24.50;1.00
20463;DHT22;10390;53.566;9.980;2023-03-01T07:44:03;24.40;1.00
20463;DHT22;10390;53.566;9.980;2023-03-01T07:46:29;24.40;1.00
20463;DHT22;10390;53.566;9.980;2023-03-01T07:48:55;24.40;1.00
20463;DHT22;10390;53.566;9.980;2023-03-01T07:51:20;24.30;1.00
20463;DHT22;10390;53.566;9.980;2023-03-01T07:53:47;24.30;1.00
20463;DHT22;10390;53.566;9.980;2023-03-01T07:56:14;24.30;1.00
20463;DHT22;10390;53.566;9.980;2023-03-01T07:58:42;24.30;1.00
20463;DHT22;10390;53.566;9.980;2023-03-01T08:01:13;24.30;1.00
20463;DHT22;10390;53.566;9.980;2023-03-01T08:03:40;24.20;1.00
20463;DHT22;10390;53.566;9.980;2023-03-01T08:06:08;24.20;1.00
20463;DHT22;10390;53.566;9.980;2023-03-01T08:08:33;24.20;1.00
20463;DHT22;10390;53.566;9.980;2023-03-01T08:11:00;24.10;1.00
20463;DHT22;10390;53.566;9.980;2023-03-01T08:13:27;24.10;1.00
20463;DHT22;10390;53.566;9.980;2023-03-01T08:15:52;24.10;1.00
20463;DHT22;10390;53.566;9.980;2023-03-01T08:18:19;24.20;1.00
20463;DHT22;10390;53.566;9.980;2023-03-01T08:20:45;24.20;1.00
20463;DHT22;10390;53.566;9.980;2023-03-01T08:23:11;24.30;1.00
20463;DHT22;10390;53.566;9.980;2023-03-01T08:25:37;24.40;1.00
20463;DHT22;10390;53.566;9.980;2023-03-01T08:28:03;24.40;1.00
20463;DHT22;10390;53.566;9.980;2023-03-01T08:30:29;24.50;1.00
20463;DHT22;10390;53.566;9.980;2023-03-01T08:32:55;24.50;1.00
20463;DHT22;10390;53.566;9.980;2023-03-01T08:35:21;24.50;1.00
20463;DHT22;10390;53.566;9.980;2023-03-01T08:37:48;24.50;1.00
20463;DHT22;10390;53.566;9.980;2023-03-01T08:40:14;24.50;1.00
20463;DHT22;10390;53.566;9.980;2023-03-01T08:42:40;24.50;1.00
20463;DHT22;10390;53.566;9.980;2023-03-01T08:45:08;24.50;1.00
20463;DHT22;10390;53.566;9.980;2023-03-01T08:47:34;24.50;1.00
20463;DHT22;10390;53.566;9.980;2023-03-01T08:50:00;24.50;1.00
20463;DHT22;10390;53.566;9.980;2023-03-01T08:52:26;24.50;1.00
20463;DHT22;10390;53.566;9.980;2023-03-01T08:54:52;24.50;1.00
20463;DHT22;10390;53.566;9.980;2023-03-01T08:57:18;24.50;1.00
20463;DHT22;10390;53.566;9.980;2023-03-01T08:59:43;24.50;1.00
20463;DHT22;10390;53.566;9.980;2023-03-01T09:02:17;24.50;1.00
20463;DHT22;10390;53.566;9.980;2023-03-01T09:04:44;24.50;1.00
20463;DHT22;10390;53.566;9.980;2023-03-01T09:07:10;24.50;1.00
20463;DHT22;10390;53.566;9.980;2023-03-01T09:09:35;24.50;1.00
20463;DHT22;10390;53.566;9.980;2023-03-01T09:12:02;24.50;1.00
20463;DHT22;10390;53.566;9.980;2023-03-01T09:14:28;24.40;1.00
20463;DHT22;10390;53.566;9.980;2023-03-01T09:16:54;24.40;1.00
20463;DHT22;10390;53.566;9.980;2023-03-01T09:19:20;24.40;1.00
20463;DHT22;10390;53.566;9.980;2023-03-01T09:21:45;24.40;1.00
20463;DHT22;10390;53.566;9.980;2023-03-01T09:24:22;24.30;1.00
20463;DHT22;10390;53.566;9.980;2023-03-01T09:26:48;24.30;1.00
20463;DHT22;10390;53.566;9.980;2023-03-01T09:29:14;24.20;1.00
20463;DHT22;10390;53.566;9.980;2023-03-01T09:31:40;24.20;1.00
20463;DHT22;10390;53.566;9.980;2023-03-01T09:34:07;24.20;1.00
20463;DHT22;10390;53.566;9.980;2023-03-01T09:36:32;24.20;1.00
20463;DHT22;10390;53.566;9.980;2023-03-01T09:38:59;24.30;1.00
20463;DHT22;10390;53.566;9.980;2023-03-01T09:41:45;24.30;1.00
20463;DHT22;10390;53.566;9.980;2023-03-01T09:47:03;24.30;1.00
20463;DHT22;10390;53.566;9.980;2023-03-01T09:49:34;24.40;1.00
20463;DHT22;10390;53.566;9.980;2023-03-01T09:52:39;24.40;1.00
20463;DHT22;10390;53.566;9.980;2023-03-01T09:55:15;24.40;1.00
20463;DHT22;10390;53.566;9.980;2023-03-01T09:57:53;24.50;1.00
20463;DHT22;10390;53.566;9.980;2023-03-01T10:00:39;24.50;1.00
20463;DHT22;10390;53.566;9.980;2023-03-01T10:03:26;24.50;1.00
20463;DHT22;10390;53.566;9.980;2023-03-01T10:06:11;24.50;1.00
20463;DHT22;10390;53.566;9.980;2023-03-01T10:11:22;24.50;1.00
20463;DHT22;10390;53.566;9.980;2023-03-01T10:19:45;24.60;1.00
20463;DHT22;10390;53.566;9.980;2023-03-01T10:22:33;24.60;1.00
20463;DHT22;10390;53.566;9.980;2023-03-01T10:25:08;24.60;1.00
20463;DHT22;10390;53.566;9.980;2023-03-01T10:27:41;24.60;1.00
20463;DHT22;10390;53.566;9.980;2023-03-01T10:32:49;24.70;1.00
20463;DHT22;10390;53.566;9.980;2023-03-01T10:35:32;24.70;1.00
20463;DHT22;10390;53.566;9.980;2023-03-01T10:38:07;24.70;1.00
20463;DHT22;10390;53.566;9.980;2023-03-01T10:40:35;24.70;1.00
20463;DHT22;10390;53.566;9.980;2023-03-01T10:43:04;24.80;1.00
20463;DHT22;10390;53.566;9.980;2023-03-01T10:50:31;24.80;1.00
20463;DHT22;10390;53.566;9.980;2023-03-01T10:56:14;24.80;1.00
20463;DHT22;10390;53.566;9.980;2023-03-01T10:59:03;24.80;1.00
20463;DHT22;10390;53.566;9.980;2023-03-01T11:01:36;24.80;1.00
20463;DHT22;10390;53.566;9.980;2023-03-01T11:06:36;24.80;1.00
20463;DHT22;10390;53.566;9.980;2023-03-01T11:11:41;24.80;1.00
20463;DHT22;10390;53.566;9.980;2023-03-01T11:14:20;24.70;1.00
20463;DHT22;10390;53.566;9.980;2023-03-01T11:16:48;24.80;1.00
20463;DHT22;10390;53.566;9.980;2023-03-01T11:19:21;24.70;1.00
20463;DHT22;10390;53.566;9.980;2023-03-01T11:22:00;24.70;1.00
20463;DHT22;10390;53.566;9.980;2023-03-01T11:24:39;24.80;1.00
20463;DHT22;10390;53.566;9.980;2023-03-01T11:27:22;24.70;1.00
20463;DHT22;10390;53.566;9.980;2023-03-01T11:32:21;24.80;1.00
20463;DHT22;10390;53.566;9.980;2023-03-01T11:34:57;24.80;1.00
20463;DHT22;10390;53.566;9.980;2023-03-01T11:37:43;24.80;1.00
20463;DHT22;10390;53.566;9.980;2023-03-01T11:40:22;24.70;1.00
20463;DHT22;10390;53.566;9.980;2023-03-01T11:45:34;24.80;1.00
20463;DHT22;10390;53.566;9.980;2023-03-01T11:48:14;24.80;1.00
20463;DHT22;10390;53.566;9.980;2023-03-01T11:50:47;24.80;1.00
20463;DHT22;10390;53.566;9.980;2023-03-01T11:53:29;24.80;1.00
20463;DHT22;10390;53.566;9.980;2023-03-01T11:56:35;24.80;1.00
20463;DHT22;10390;53.566;9.980;2023-03-01T12:01:51;24.80;1.00
20463;DHT22;10390;53.566;9.980;2023-03-01T12:07:00;24.80;1.00
20463;DHT22;10390;53.566;9.980;2023-03-01T12:09:51;24.80;1.00
20463;DHT22;10390;53.566;9.980;2023-03-01T12:12:47;24.70;1.00
20463;DHT22;10390;53.566;9.980;2023-03-01T12:15:42;24.70;1.00
20463;DHT22;10390;53.566;9.980;2023-03-01T12:26:32;24.70;1.00
20463;DHT22;10390;53.566;9.980;2023-03-01T12:29:11;24.70;1.00
20463;DHT22;10390;53.566;9.980;2023-03-01T12:32:00;24.80;1.00
20463;DHT22;10390;53.566;9.980;2023-03-01T12:35:16;24.80;1.00
20463;DHT22;10390;53.566;9.980;2023-03-01T12:38:19;24.70;1.00
20463;DHT22;10390;53.566;9.980;2023-03-01T12:46:38;24.80;1.00
20463;DHT22;10390;53.566;9.980;2023-03-01T12:49:14;24.80;1.00
20463;DHT22;10390;53.566;9.980;2023-03-01T12:51:50;24.80;1.00
20463;DHT22;10390;53.566;9.980;2023-03-01T12:54:26;24.90;1.00
20463;DHT22;10390;53.566;9.980;2023-03-01T12:56:53;24.90;1.00
20463;DHT22;10390;53.566;9.980;2023-03-01T13:02:14;24.90;1.00
20463;DHT22;10390;53.566;9.980;2023-03-01T13:07:37;24.80;1.00
20463;DHT22;10390;53.566;9.980;2023-03-01T13:20:24;24.70;1.00
20463;DHT22;10390;53.566;9.980;2023-03-01T13:23:47;24.70;1.00
20463;DHT22;10390;53.566;9.980;2023-03-01T13:31:10;24.70;1.00
20463;DHT22;10390;53.566;9.980;2023-03-01T13:39:03;24.80;1.00
20463;DHT22;10390;53.566;9.980;2023-03-01T13:46:43;24.90;1.00
20463;DHT22;10390;53.566;9.980;2023-03-01T13:49:14;24.90;1.00
20463;DHT22;10390;53.566;9.980;2023-03-01T13:51:41;24.90;1.00
20463;DHT22;10390;53.566;9.980;2023-03-01T13:54:11;24.90;1.00
20463;DHT22;10390;53.566;9.980;2023-03-01T13:56:37;24.90;1.00
20463;DHT22;10390;53.566;9.980;2023-03-01T13:59:16;24.90;1.00
20463;DHT22;10390;53.566;9.980;2023-03-01T14:01:42;24.90;1.00
20463;DHT22;10390;53.566;9.980;2023-03-01T14:06:51;24.90;1.00
20463;DHT22;10390;53.566;9.980;2023-03-01T14:09:25;24.80;1.00
20463;DHT22;10390;53.566;9.980;2023-03-01T14:11:59;24.90;1.00
20463;DHT22;10390;53.566;9.980;2023-03-01T14:15:19;24.80;1.00
20463;DHT22;10390;53.566;9.980;2023-03-01T14:17:44;24.80;1.00
20463;DHT22;10390;53.566;9.980;2023-03-01T14:20:23;24.80;1.00
20463;DHT22;10390;53.566;9.980;2023-03-01T14:22:51;24.80;1.00
20463;DHT22;10390;53.566;9.980;2023-03-01T14:25:35;24.70;1.00
20463;DHT22;10390;53.566;9.980;2023-03-01T14:28:19;24.70;1.00
20463;DHT22;10390;53.566;9.980;2023-03-01T14:30:51;24.70;1.00
20463;DHT22;10390;53.566;9.980;2023-03-01T14:33:31;24.70;1.00
20463;DHT22;10390;53.566;9.980;2023-03-01T14:36:04;24.70;1.00
20463;DHT22;10390;53.566;9.980;2023-03-01T14:41:07;24.60;1.00
20463;DHT22;10390;53.566;9.980;2023-03-01T14:43:35;24.60;1.00
20463;DHT22;10390;53.566;9.980;2023-03-01T14:46:02;24.60;1.00
20463;DHT22;10390;53.566;9.980;2023-03-01T14:48:28;24.50;1.00
20463;DHT22;10390;53.566;9.980;2023-03-01T14:50:55;24.50;1.00
20463;DHT22;10390;53.566;9.980;2023-03-01T14:53:29;24.50;1.00
20463;DHT22;10390;53.566;9.980;2023-03-01T14:55:59;24.50;1.00
20463;DHT22;10390;53.566;9.980;2023-03-01T14:58:27;24.50;1.00
20463;DHT22;10390;53.566;9.980;2023-03-01T15:00:59;24.50;1.00
20463;DHT22;10390;53.566;9.980;2023-03-01T15:03:36;24.60;1.00
20463;DHT22;10390;53.566;9.980;2023-03-01T15:06:05;24.70;1.00
20463;DHT22;10390;53.566;9.980;2023-03-01T15:08:31;24.70;1.00
20463;DHT22;10390;53.566;9.980;2023-03-01T15:11:15;24.80;1.00
20463;DHT22;10390;53.566;9.980;2023-03-01T15:13:43;24.90;1.00
20463;DHT22;10390;53.566;9.980;2023-03-01T15:16:13;24.90;1.00
20463;DHT22;10390;53.566;9.980;2023-03-01T15:18:50;25.00;1.00
20463;DHT22;10390;53.566;9.980;2023-03-01T15:21:37;25.00;1.00
20463;DHT22;10390;53.566;9.980;2023-03-01T15:24:17;25.00;1.00
20463;DHT22;10390;53.566;9.980;2023-03-01T15:26:51;25.00;1.00
20463;DHT22;10390;53.566;9.980;2023-03-01T15:29:23;25.00;1.00
20463;DHT22;10390;53.566;9.980;2023-03-01T15:32:00;25.00;1.00
20463;DHT22;10390;53.566;9.980;2023-03-01T15:34:29;25.00;1.00
20463;DHT22;10390;53.566;9.980;2023-03-01T15:36:57;25.00;1.00
20463;DHT22;10390;53.566;9.980;2023-03-01T15:39:37;25.00;1.00
20463;DHT22;10390;53.566;9.980;2023-03-01T15:42:35;25.00;1.00
20463;DHT22;10390;53.566;9.980;2023-03-01T15:45:32;24.90;1.00
20463;DHT22;10390;53.566;9.980;2023-03-01T15:48:04;24.90;1.00
20463;DHT22;10390;53.566;9.980;2023-03-01T15:50:33;24.80;1.00
20463;DHT22;10390;53.566;9.980;2023-03-01T15:53:01;24.80;1.00
20463;DHT22;10390;53.566;9.980;2023-03-01T15:55:30;24.80;1.00
20463;DHT22;10390;53.566;9.980;2023-03-01T15:58:13;24.70;1.00
20463;DHT22;10390;53.566;9.980;2023-03-01T16:00:39;24.80;1.00
20463;DHT22;10390;53.566;9.980;2023-03-01T16:03:05;24.70;1.00
20463;DHT22;10390;53.566;9.980;2023-03-01T16:05:34;24.70;1.00
20463;DHT22;10390;53.566;9.980;2023-03-01T16:08:00;24.70;1.00
20463;DHT22;10390;53.566;9.980;2023-03-01T16:10:26;24.60;1.00
20463;DHT22;10390;53.566;9.980;2023-03-01T16:12:52;24.60;1.00
20463;DHT22;10390;53.566;9.980;2023-03-01T16:15:23;24.50;1.00
20463;DHT22;10390;53.566;9.980;2023-03-01T16:17:49;24.50;1.00
20463;DHT22;10390;53.566;9.980;2023-03-01T16:20:15;24.40;1.00
20463;DHT22;10390;53.566;9.980;2023-03-01T16:22:45;24.40;1.00
20463;DHT22;10390;53.566;9.980;2023-03-01T16:25:13;24.40;1.00
20463;DHT22;10390;53.566;9.980;2023-03-01T16:27:45;24.50;1.00
20463;DHT22;10390;53.566;9.980;2023-03-01T16:30:12;24.50;1.00
20463;DHT22;10390;53.566;9.980;2023-03-01T16:32:42;24.60;1.00
20463;DHT22;10390;53.566;9.980;2023-03-01T16:35:10;24.60;1.00
20463;DHT22;10390;53.566;9.980;2023-03-01T16:37:36;24.70;1.00
20463;DHT22;10390;53.566;9.980;2023-03-01T16:40:04;24.70;1.00
20463;DHT22;10390;53.566;9.980;2023-03-01T16:42:34;24.80;1.00
20463;DHT22;10390;53.566;9.980;2023-03-01T16:45:00;24.90;1.00
20463;DHT22;10390;53.566;9.980;2023-03-01T16:47:27;25.00;1.00
20463;DHT22;10390;53.566;9.980;2023-03-01T16:49:53;25.00;1.00
20463;DHT22;10390;53.566;9.980;2023-03-01T16:52:19;25.00;1.00
20463;DHT22;10390;53.566;9.980;2023-03-01T16:54:45;25.00;1.00
20463;DHT22;10390;53.566;9.980;2023-03-01T16:57:11;25.00;1.00
20463;DHT22;10390;53.566;9.980;2023-03-01T16:59:37;25.00;1.00
20463;DHT22;10390;53.566;9.980;2023-03-01T17:02:08;24.90;1.00
20463;DHT22;10390;53.566;9.980;2023-03-01T17:04:36;24.90;1.00
20463;DHT22;10390;53.566;9.980;2023-03-01T17:07:02;24.90;1.00
20463;DHT22;10390;53.566;9.980;2023-03-01T17:09:28;24.90;1.00
20463;DHT22;10390;53.566;9.980;2023-03-01T17:11:53;24.80;1.00
20463;DHT22;10390;53.566;9.980;2023-03-01T17:14:20;24.80;1.00
20463;DHT22;10390;53.566;9.980;2023-03-01T17:16:46;24.70;1.00
20463;DHT22;10390;53.566;9.980;2023-03-01T17:19:11;24.70;1.00
20463;DHT22;10390;53.566;9.980;2023-03-01T17:21:45;24.70;1.00
20463;DHT22;10390;53.566;9.980;2023-03-01T17:24:11;24.70;1.00
20463;DHT22;10390;53.566;9.980;2023-03-01T17:26:38;24.70;1.00
20463;DHT22;10390;53.566;9.980;2023-03-01T17:29:04;24.50;1.00
20463;DHT22;10390;53.566;9.980;2023-03-01T17:31:33;24.50;1.00
20463;DHT22;10390;53.566;9.980;2023-03-01T17:33:59;24.50;1.00
20463;DHT22;10390;53.566;9.980;2023-03-01T17:36:25;24.40;1.00
20463;DHT22;10390;53.566;9.980;2023-03-01T17:38:51;24.40;1.00